sensor_id;sensor_type;location;lat;lon;timestamp;temperature;humidity
2729;DHT22;1372;47.956;7.830;2023-04-01T00:01:39;9.80;99.90
2729;DHT22;1372;47.956;7.830;2023-04-01T00:04:10;9.70;99.90
2729;DHT22;1372;47.956;7.830;2023-04-01T00:06:39;9.60;99.90
2729;DHT22;1372;47.956;7.830;2023-04-01T00:09:08;9.70;99.90
2729;DHT22;1372;47.956;7.830;2023-04-01T00:11:36;9.80;99.90
2729;DHT22;1372;47.956;7.830;2023-04-01T00:14:08;9.70;99.90
2729;DHT22;1372;47.956;7.830;2023-04-01T00:16:38;9.70;99.90
2729;DHT22;1372;47.956;7.830;2023-04-01T00:19:07;9.70;99.90
2729;DHT22;1372;47.956;7.830;2023-04-01T00:21:35;9.70;99.90
2729;DHT22;1372;47.956;7.830;2023-04-01T00:24:04;9.70;99.90
2729;DHT22;1372;47.956;7.830;2023-04-01T00:26:34;9.70;99.90
2729;DHT22;1372;47.956;7.830;2023-04-01T00:29:02;9.50;99.90
2729;DHT22;1372;47.956;7.830;2023-04-01T00:31:33;9.60;99.90
2729;DHT22;1372;47.956;7.830;2023-04-01T00:34:04;9.60;99.90
2729;DHT22;1372;47.956;7.830;2023-04-01T00:36:33;9.60;99.90
2729;DHT22;1372;47.956;7.830;2023-04-01T00:39:02;9.60;99.90
2729;DHT22;1372;47.956;7.830;2023-04-01T00:41:31;9.70;99.90
2729;DHT22;1372;47.956;7.830;2023-04-01T00:44:16;9.80;99.90
2729;DHT22;1372;47.956;7.830;2023-04-01T00:46:48;9.80;99.90
2729;DHT22;1372;47.956;7.830;2023-04-01T00:49:19;10.00;99.90
2729;DHT22;1372;47.956;7.830;2023-04-01T00:51:52;10.00;99.90
2729;DHT22;1372;47.956;7.830;2023-04-01T00:54:27;9.90;99.90
2729;DHT22;1372;47.956;7.830;2023-04-01T00:57:00;9.90;99.90
2729;DHT22;1372;47.956;7.830;2023-04-01T00:59:35;10.00;99.90
2729;DHT22;1372;47.956;7.830;2023-04-01T01:02:10;10.00;99.90
2729;DHT22;1372;47.956;7.830;2023-04-01T01:04:44;10.00;99.90
2729;DHT22;1372;47.956;7.830;2023-04-01T01:07:22;9.90;99.90
2729;DHT22;1372;47.956;7.830;2023-04-01T01:09:59;9.90;99.90
2729;DHT22;1372;47.956;7.830;2023-04-01T01:12:35;9.90;99.90
2729;DHT22;1372;47.956;7.830;2023-04-01T01:15:13;9.90;99.90
2729;DHT22;1372;47.956;7.830;2023-04-01T01:17:55;9.90;99.90
2729;DHT22;1372;47.956;7.830;2023-04-01T01:20:48;9.90;99.90
2729;DHT22;1372;47.956;7.830;2023-04-01T01:24:03;9.90;99.90
2729;DHT22;1372;47.956;7.830;2023-04-01T01:26:48;10.00;99.90
2729;DHT22;1372;47.956;7.830;2023-04-01T01:33:06;10.00;99.90
2729;DHT22;1372;47.956;7.830;2023-04-01T01:36:05;10.00;99.90
2729;DHT22;1372;47.956;7.830;2023-04-01T01:38:35;10.00;99.90
2729;DHT22;1372;47.956;7.830;2023-04-01T01:41:07;9.90;99.90
2729;DHT22;1372;47.956;7.830;2023-04-01T01:43:39;10.00;99.90
2729;DHT22;1372;47.956;7.830;2023-04-01T01:46:19;10.00;99.90
2729;DHT22;1372;47.956;7.830;2023-04-01T01:48:50;10.10;99.90
2729;DHT22;1372;47.956;7.830;2023-04-01T01:51:22;10.10;99.90
2729;DHT22;1372;47.956;7.830;2023-04-01T01:53:51;10.10;99.90
2729;DHT22;1372;47.956;7.830;2023-04-01T01:56:23;10.10;99.90
2729;DHT22;1372;47.956;7.830;2023-04-01T01:58:56;10.10;99.90
2729;DHT22;1372;47.956;7.830;2023-04-01T02:01:29;10.20;99.90
2729;DHT22;1372;47.956;7.830;2023-04-01T02:04:00;10.20;99.90
2729;DHT22;1372;47.956;7.830;2023-04-01T02:06:33;10.20;99.90
2729;DHT22;1372;47.956;7.830;2023-04-01T02:09:05;10.20;99.90
2729;DHT22;1372;47.956;7.830;2023-04-01T02:11:41;10.30;99.90
2729;DHT22;1372;47.956;7.830;2023-04-01T02:14:16;10.10;99.90
2729;DHT22;1372;47.956;7.830;2023-04-01T02:16:51;10.20;99.90
2729;DHT22;1372;47.956;7.830;2023-04-01T02:19:27;10.00;99.90
2729;DHT22;1372;47.956;7.830;2023-04-01T02:22:02;10.10;99.90
2729;DHT22;1372;47.956;7.830;2023-04-01T02:24:35;10.20;99.90
2729;DHT22;1372;47.956;7.830;2023-04-01T02:27:04;10.00;99.90
2729;DHT22;1372;47.956;7.830;2023-04-01T02:29:33;10.00;99.90
2729;DHT22;1372;47.956;7.830;2023-04-01T02:32:03;9.90;99.90
2729;DHT22;1372;47.956;7.830;2023-04-01T02:34:35;9.90;99.90
2729;DHT22;1372;47.956;7.830;2023-04-01T02:37:06;9.70;99.90
2729;DHT22;1372;47.956;7.830;2023-04-01T02:39:37;9.80;99.90
2729;DHT22;1372;47.956;7.830;2023-04-01T02:42:06;9.80;99.90
2729;DHT22;1372;47.956;7.830;2023-04-01T02:44:35;9.70;99.90
2729;DHT22;1372;47.956;7.830;2023-04-01T02:47:04;9.50;99.90
2729;DHT22;1372;47.956;7.830;2023-04-01T02:49:35;9.50;99.90
2729;DHT22;1372;47.956;7.830;2023-04-01T02:52:06;9.50;99.90
2729;DHT22;1372;47.956;7.830;2023-04-01T02:54:35;9.40;99.90
2729;DHT22;1372;47.956;7.830;2023-04-01T02:57:03;9.40;99.90
2729;DHT22;1372;47.956;7.830;2023-04-01T02:59:32;9.40;99.90
2729;DHT22;1372;47.956;7.830;2023-04-01T03:02:01;9.40;99.90
2729;DHT22;1372;47.956;7.830;2023-04-01T03:04:30;9.40;99.90
2729;DHT22;1372;47.956;7.830;2023-04-01T03:06:59;9.30;99.90
2729;DHT22;1372;47.956;7.830;2023-04-01T03:09:29;9.30;99.90
2729;DHT22;1372;47.956;7.830;2023-04-01T03:11:58;9.30;99.90
2729;DHT22;1372;47.956;7.830;2023-04-01T03:14:27;9.20;99.90
2729;DHT22;1372;47.956;7.830;2023-04-01T03:16:56;9.20;99.90
2729;DHT22;1372;47.956;7.830;2023-04-01T03:19:25;9.30;99.90
2729;DHT22;1372;47.956;7.830;2023-04-01T03:21:53;9.30;99.90
2729;DHT22;1372;47.956;7.830;2023-04-01T03:24:25;9.30;99.90
2729;DHT22;1372;47.956;7.830;2023-04-01T03:26:55;9.30;99.90
2729;DHT22;1372;47.956;7.830;2023-04-01T03:29:24;9.40;99.90
2729;DHT22;1372;47.956;7.830;2023-04-01T03:31:52;9.40;99.90
2729;DHT22;1372;47.956;7.830;2023-04-01T03:34:23;9.40;99.90
2729;DHT22;1372;47.956;7.830;2023-04-01T03:36:52;9.40;99.90
2729;DHT22;1372;47.956;7.830;2023-04-01T03:39:21;9.50;99.90
2729;DHT22;1372;47.956;7.830;2023-04-01T03:41:50;9.50;99.90
2729;DHT22;1372;47.956;7.830;2023-04-01T03:44:20;9.30;99.90
2729;DHT22;1372;47.956;7.830;2023-04-01T03:46:51;9.40;99.90
2729;DHT22;1372;47.956;7.830;2023-04-01T03:49:20;9.40;99.90
2729;DHT22;1372;47.956;7.830;2023-04-01T03:51:49;9.40;99.90
2729;DHT22;1372;47.956;7.830;2023-04-01T03:54:18;9.30;99.90
2729;DHT22;1372;47.956;7.830;2023-04-01T03:56:49;9.30;99.90
2729;DHT22;1372;47.956;7.830;2023-04-01T03:59:20;9.40;99.90
2729;DHT22;1372;47.956;7.830;2023-04-01T04:01:48;9.50;99.90
2729;DHT22;1372;47.956;7.830;2023-04-01T04:04:17;9.40;99.90
2729;DHT22;1372;47.956;7.830;2023-04-01T04:06:47;9.40;99.90
2729;DHT22;1372;47.956;7.830;2023-04-01T04:09:16;9.50;99.90
2729;DHT22;1372;47.956;7.830;2023-04-01T04:11:45;9.30;99.90
2729;DHT22;1372;47.956;7.830;2023-04-01T04:14:13;9.30;99.90
2729;DHT22;1372;47.956;7.830;2023-04-01T04:16:44;9.30;99.90
2729;DHT22;1372;47.956;7.830;2023-04-01T04:19:12;9.30;99.90
2729;DHT22;1372;47.956;7.830;2023-04-01T04:21:41;9.30;99.90
2729;DHT22;1372;47.956;7.830;2023-04-01T04:24:11;9.10;99.90
2729;DHT22;1372;47.956;7.830;2023-04-01T04:26:39;9.20;99.90
2729;DHT22;1372;47.956;7.830;2023-04-01T04:29:08;9.30;99.90
2729;DHT22;1372;47.956;7.830;2023-04-01T04:31:37;9.40;99.90
2729;DHT22;1372;47.956;7.830;2023-04-01T04:34:07;9.40;99.90
2729;DHT22;1372;47.956;7.830;2023-04-01T04:36:36;9.40;99.90
2729;DHT22;1372;47.956;7.830;2023-04-01T04:39:05;9.40;99.90
2729;DHT22;1372;47.956;7.830;2023-04-01T04:41:33;9.30;99.90
2729;DHT22;1372;47.956;7.830;2023-04-01T04:44:05;9.30;99.90
2729;DHT22;1372;47.956;7.830;2023-04-01T04:46:34;9.40;99.90
2729;DHT22;1372;47.956;7.830;2023-04-01T04:49:04;9.30;99.90
2729;DHT22;1372;47.956;7.830;2023-04-01T04:51:36;9.30;99.90
2729;DHT22;1372;47.956;7.830;2023-04-01T04:54:06;9.40;99.90
2729;DHT22;1372;47.956;7.830;2023-04-01T04:56:35;9.20;99.90
2729;DHT22;1372;47.956;7.830;2023-04-01T04:59:05;9.30;99.90
2729;DHT22;1372;47.956;7.830;2023-04-01T05:01:34;9.50;99.90
2729;DHT22;1372;47.956;7.830;2023-04-01T05:04:02;9.50;99.90
2729;DHT22;1372;47.956;7.830;2023-04-01T05:06:31;9.60;99.90
2729;DHT22;1372;47.956;7.830;2023-04-01T05:09:01;9.60;99.90
2729;DHT22;1372;47.956;7.830;2023-04-01T05:11:31;9.60;99.90
2729;DHT22;1372;47.956;7.830;2023-04-01T05:13:59;9.70;99.90
2729;DHT22;1372;47.956;7.830;2023-04-01T05:16:31;9.50;99.90
2729;DHT22;1372;47.956;7.830;2023-04-01T05:19:00;9.50;99.90
2729;DHT22;1372;47.956;7.830;2023-04-01T05:21:29;9.50;99.90
2729;DHT22;1372;47.956;7.830;2023-04-01T05:23:57;9.60;99.90
2729;DHT22;1372;47.956;7.830;2023-04-01T05:26:28;9.60;99.90
2729;DHT22;1372;47.956;7.830;2023-04-01T05:29:03;9.50;99.90
2729;DHT22;1372;47.956;7.830;2023-04-01T05:31:33;9.50;99.90
2729;DHT22;1372;47.956;7.830;2023-04-01T05:34:02;9.50;99.90
2729;DHT22;1372;47.956;7.830;2023-04-01T05:36:36;9.60;99.90
2729;DHT22;1372;47.956;7.830;2023-04-01T05:39:07;9.60;99.90
2729;DHT22;1372;47.956;7.830;2023-04-01T05:41:40;9.70;99.90
2729;DHT22;1372;47.956;7.830;2023-04-01T05:44:11;9.70;99.90
2729;DHT22;1372;47.956;7.830;2023-04-01T05:46:43;9.60;99.90
2729;DHT22;1372;47.956;7.830;2023-04-01T05:49:16;9.70;99.90
2729;DHT22;1372;47.956;7.830;2023-04-01T05:51:48;9.60;99.90
2729;DHT22;1372;47.956;7.830;2023-04-01T05:54:16;9.60;99.90
2729;DHT22;1372;47.956;7.830;2023-04-01T05:56:47;9.70;99.90
2729;DHT22;1372;47.956;7.830;2023-04-01T05:59:18;9.70;99.90
2729;DHT22;1372;47.956;7.830;2023-04-01T06:01:47;9.80;99.90
2729;DHT22;1372;47.956;7.830;2023-04-01T06:04:20;9.90;99.90
2729;DHT22;1372;47.956;7.830;2023-04-01T06:06:49;9.90;99.90
2729;DHT22;1372;47.956;7.830;2023-04-01T06:09:21;9.90;99.90
2729;DHT22;1372;47.956;7.830;2023-04-01T06:12:13;9.80;99.90
2729;DHT22;1372;47.956;7.830;2023-04-01T06:15:07;9.70;99.90
2729;DHT22;1372;47.956;7.830;2023-04-01T06:17:51;9.70;99.90
2729;DHT22;1372;47.956;7.830;2023-04-01T06:20:32;9.70;99.90
2729;DHT22;1372;47.956;7.830;2023-04-01T06:23:19;9.90;99.90
2729;DHT22;1372;47.956;7.830;2023-04-01T06:26:15;9.90;99.90
2729;DHT22;1372;47.956;7.830;2023-04-01T06:29:22;10.00;99.90
2729;DHT22;1372;47.956;7.830;2023-04-01T06:35:19;10.00;99.90
2729;DHT22;1372;47.956;7.830;2023-04-01T06:38:21;10.00;99.90
2729;DHT22;1372;47.956;7.830;2023-04-01T06:41:18;10.10;99.90
2729;DHT22;1372;47.956;7.830;2023-04-01T06:44:16;10.00;99.90
2729;DHT22;1372;47.956;7.830;2023-04-01T06:46:52;10.20;99.90
2729;DHT22;1372;47.956;7.830;2023-04-01T06:49:44;10.20;99.90
2729;DHT22;1372;47.956;7.830;2023-04-01T06:52:23;10.10;99.90
2729;DHT22;1372;47.956;7.830;2023-04-01T06:55:00;10.20;99.90
2729;DHT22;1372;47.956;7.830;2023-04-01T06:57:48;10.20;99.90
2729;DHT22;1372;47.956;7.830;2023-04-01T07:00:24;10.10;99.90
2729;DHT22;1372;47.956;7.830;2023-04-01T07:03:05;10.20;99.90
2729;DHT22;1372;47.956;7.830;2023-04-01T07:05:37;10.10;99.90
2729;DHT22;1372;47.956;7.830;2023-04-01T07:08:09;10.10;99.90
2729;DHT22;1372;47.956;7.830;2023-04-01T07:10:43;10.20;99.90
2729;DHT22;1372;47.956;7.830;2023-04-01T07:13:20;10.20;99.90
2729;DHT22;1372;47.956;7.830;2023-04-01T07:16:08;10.30;99.90
2729;DHT22;1372;47.956;7.830;2023-04-01T07:18:46;10.40;99.90
2729;DHT22;1372;47.956;7.830;2023-04-01T07:21:23;10.30;99.90
2729;DHT22;1372;47.956;7.830;2023-04-01T07:23:59;10.40;99.90
2729;DHT22;1372;47.956;7.830;2023-04-01T07:26:29;10.50;99.90
2729;DHT22;1372;47.956;7.830;2023-04-01T07:28:58;10.30;99.90
2729;DHT22;1372;47.956;7.830;2023-04-01T07:31:41;10.30;99.90
2729;DHT22;1372;47.956;7.830;2023-04-01T07:34:28;10.40;99.90
2729;DHT22;1372;47.956;7.830;2023-04-01T07:37:06;10.50;99.90
2729;DHT22;1372;47.956;7.830;2023-04-01T07:39:45;10.40;99.90
2729;DHT22;1372;47.956;7.830;2023-04-01T07:42:28;10.40;99.90
2729;DHT22;1372;47.956;7.830;2023-04-01T07:45:08;10.30;99.90
2729;DHT22;1372;47.956;7.830;2023-04-01T07:47:54;10.40;99.90
2729;DHT22;1372;47.956;7.830;2023-04-01T07:50:34;10.30;99.90
2729;DHT22;1372;47.956;7.830;2023-04-01T07:53:13;10.40;99.90
2729;DHT22;1372;47.956;7.830;2023-04-01T07:55:50;10.40;99.90
2729;DHT22;1372;47.956;7.830;2023-04-01T07:58:28;10.60;99.90
2729;DHT22;1372;47.956;7.830;2023-04-01T08:01:06;10.50;99.90
2729;DHT22;1372;47.956;7.830;2023-04-01T08:04:04;10.40;99.90
2729;DHT22;1372;47.956;7.830;2023-04-01T08:06:56;10.30;99.90
2729;DHT22;1372;47.956;7.830;2023-04-01T08:09:33;10.30;99.90
2729;DHT22;1372;47.956;7.830;2023-04-01T08:12:17;10.40;99.90
2729;DHT22;1372;47.956;7.830;2023-04-01T08:15:02;10.40;99.90
2729;DHT22;1372;47.956;7.830;2023-04-01T08:17:44;10.40;99.90
2729;DHT22;1372;47.956;7.830;2023-04-01T08:20:28;10.30;99.90
2729;DHT22;1372;47.956;7.830;2023-04-01T08:23:04;10.30;99.90
2729;DHT22;1372;47.956;7.830;2023-04-01T08:25:38;10.30;99.90
2729;DHT22;1372;47.956;7.830;2023-04-01T08:28:17;10.30;99.90
2729;DHT22;1372;47.956;7.830;2023-04-01T08:30:56;10.40;99.90
2729;DHT22;1372;47.956;7.830;2023-04-01T08:33:28;10.30;99.90
2729;DHT22;1372;47.956;7.830;2023-04-01T08:36:03;10.40;99.90
2729;DHT22;1372;47.956;7.830;2023-04-01T08:38:40;10.30;99.90
2729;DHT22;1372;47.956;7.830;2023-04-01T08:41:27;10.30;99.90
2729;DHT22;1372;47.956;7.830;2023-04-01T08:44:39;10.30;99.90
2729;DHT22;1372;47.956;7.830;2023-04-01T08:47:46;10.40;99.90
2729;DHT22;1372;47.956;7.830;2023-04-01T08:53:56;10.40;99.90
2729;DHT22;1372;47.956;7.830;2023-04-01T08:56:37;10.50;99.90
2729;DHT22;1372;47.956;7.830;2023-04-01T08:59:24;10.40;99.90
2729;DHT22;1372;47.956;7.830;2023-04-01T09:05:22;10.50;99.90
2729;DHT22;1372;47.956;7.830;2023-04-01T09:08:08;10.50;99.90
2729;DHT22;1372;47.956;7.830;2023-04-01T09:11:03;10.50;99.90
2729;DHT22;1372;47.956;7.830;2023-04-01T09:20:24;10.60;99.90
2729;DHT22;1372;47.956;7.830;2023-04-01T09:26:47;10.60;99.90
2729;DHT22;1372;47.956;7.830;2023-04-01T09:29:58;10.70;99.90
2729;DHT22;1372;47.956;7.830;2023-04-01T09:33:14;10.80;99.90
2729;DHT22;1372;47.956;7.830;2023-04-01T09:36:00;10.70;99.90
2729;DHT22;1372;47.956;7.830;2023-04-01T09:38:44;10.70;99.90
2729;DHT22;1372;47.956;7.830;2023-04-01T09:41:29;10.70;99.90
2729;DHT22;1372;47.956;7.830;2023-04-01T09:44:06;10.60;99.90
2729;DHT22;1372;47.956;7.830;2023-04-01T09:46:51;10.70;99.90
2729;DHT22;1372;47.956;7.830;2023-04-01T09:52:56;10.80;99.90
2729;DHT22;1372;47.956;7.830;2023-04-01T09:59:31;10.80;99.90
2729;DHT22;1372;47.956;7.830;2023-04-01T10:02:43;10.80;99.90
2729;DHT22;1372;47.956;7.830;2023-04-01T10:13:08;10.70;99.90
2729;DHT22;1372;47.956;7.830;2023-04-01T10:19:44;10.70;99.90
2729;DHT22;1372;47.956;7.830;2023-04-01T10:22:56;10.70;99.90
2729;DHT22;1372;47.956;7.830;2023-04-01T10:25:55;10.60;99.90
2729;DHT22;1372;47.956;7.830;2023-04-01T10:32:17;10.60;99.90
2729;DHT22;1372;47.956;7.830;2023-04-01T10:42:40;10.60;99.90
2729;DHT22;1372;47.956;7.830;2023-04-01T10:49:05;10.70;99.90
2729;DHT22;1372;47.956;7.830;2023-04-01T10:52:24;10.60;99.90
2729;DHT22;1372;47.956;7.830;2023-04-01T10:55:36;10.70;99.90
2729;DHT22;1372;47.956;7.830;2023-04-01T10:58:46;10.60;99.90
2729;DHT22;1372;47.956;7.830;2023-04-01T11:02:03;10.60;99.90
2729;DHT22;1372;47.956;7.830;2023-04-01T11:12:44;10.80;99.90
2729;DHT22;1372;47.956;7.830;2023-04-01T11:15:58;10.80;99.90
2729;DHT22;1372;47.956;7.830;2023-04-01T11:31:44;10.70;99.90
2729;DHT22;1372;47.956;7.830;2023-04-01T11:37:29;10.60;99.90
2729;DHT22;1372;47.956;7.830;2023-04-01T11:40:16;10.50;99.90
2729;DHT22;1372;47.956;7.830;2023-04-01T11:42:57;10.50;99.90
2729;DHT22;1372;47.956;7.830;2023-04-01T11:45:35;10.50;99.90
2729;DHT22;1372;47.956;7.830;2023-04-01T11:48:27;10.50;99.90
2729;DHT22;1372;47.956;7.830;2023-04-01T11:51:20;10.60;99.90
2729;DHT22;1372;47.956;7.830;2023-04-01T11:54:04;10.60;99.90
2729;DHT22;1372;47.956;7.830;2023-04-01T11:57:07;10.70;99.90
2729;DHT22;1372;47.956;7.830;2023-04-01T11:59:50;10.70;99.90
2729;DHT22;1372;47.956;7.830;2023-04-01T12:02:44;10.70;99.90
2729;DHT22;1372;47.956;7.830;2023-04-01T12:05:33;10.80;99.90
2729;DHT22;1372;47.956;7.830;2023-04-01T12:08:24;10.90;99.90
2729;DHT22;1372;47.956;7.830;2023-04-01T12:11:03;10.90;99.90
2729;DHT22;1372;47.956;7.830;2023-04-01T12:13:43;11.00;99.90
2729;DHT22;1372;47.956;7.830;2023-04-01T12:19:17;11.10;99.90
2729;DHT22;1372;47.956;7.830;2023-04-01T12:22:08;11.10;99.90
2729;DHT22;1372;47.956;7.830;2023-04-01T12:24:58;11.10;99.90
2729;DHT22;1372;47.956;7.830;2023-04-01T12:27:49;11.10;99.90
2729;DHT22;1372;47.956;7.830;2023-04-01T12:30:40;11.10;99.90
2729;DHT22;1372;47.956;7.830;2023-04-01T12:33:41;11.10;99.90
2729;DHT22;1372;47.956;7.830;2023-04-01T12:36:40;11.20;99.90
2729;DHT22;1372;47.956;7.830;2023-04-01T12:39:44;11.20;99.90
2729;DHT22;1372;47.956;7.830;2023-04-01T12:42:35;11.20;99.90
2729;DHT22;1372;47.956;7.830;2023-04-01T12:45:30;11.30;99.90
2729;DHT22;1372;47.956;7.830;2023-04-01T12:48:14;11.20;99.90
2729;DHT22;1372;47.956;7.830;2023-04-01T12:51:41;11.20;99.90
2729;DHT22;1372;47.956;7.830;2023-04-01T12:54:59;11.20;99.90
2729;DHT22;1372;47.956;7.830;2023-04-01T12:58:02;11.30;99.90
2729;DHT22;1372;47.956;7.830;2023-04-01T13:10:47;11.40;99.90
2729;DHT22;1372;47.956;7.830;2023-04-01T13:13:54;11.40;99.90
2729;DHT22;1372;47.956;7.830;2023-04-01T13:16:47;11.40;99.90
2729;DHT22;1372;47.956;7.830;2023-04-01T13:19:22;11.50;99.90
2729;DHT22;1372;47.956;7.830;2023-04-01T13:21:57;11.50;99.90
2729;DHT22;1372;47.956;7.830;2023-04-01T13:24:41;11.50;99.90
2729;DHT22;1372;47.956;7.830;2023-04-01T13:27:18;11.50;99.90
2729;DHT22;1372;47.956;7.830;2023-04-01T13:30:00;11.50;99.90
2729;DHT22;1372;47.956;7.830;2023-04-01T13:32:40;11.60;99.90
2729;DHT22;1372;47.956;7.830;2023-04-01T13:35:23;11.60;99.90
2729;DHT22;1372;47.956;7.830;2023-04-01T13:38:16;11.60;99.90
2729;DHT22;1372;47.956;7.830;2023-04-01T13:41:13;11.70;99.90
2729;DHT22;1372;47.956;7.830;2023-04-01T13:43:55;11.80;99.90
2729;DHT22;1372;47.956;7.830;2023-04-01T13:46:47;11.90;99.90
2729;DHT22;1372;47.956;7.830;2023-04-01T13:56:03;12.10;99.90
2729;DHT22;1372;47.956;7.830;2023-04-01T13:58:50;12.30;99.90
2729;DHT22;1372;47.956;7.830;2023-04-01T14:01:32;12.40;99.90
2729;DHT22;1372;47.956;7.830;2023-04-01T14:07:15;12.50;99.90
2729;DHT22;1372;47.956;7.830;2023-04-01T14:10:02;12.50;99.90
2729;DHT22;1372;47.956;7.830;2023-04-01T14:12:39;12.60;99.90
2729;DHT22;1372;47.956;7.830;2023-04-01T14:15:28;12.60;99.90
2729;DHT22;1372;47.956;7.830;2023-04-01T14:18:33;12.60;99.90
2729;DHT22;1372;47.956;7.830;2023-04-01T14:21:17;12.60;99.90
2729;DHT22;1372;47.956;7.830;2023-04-01T14:24:14;12.60;99.90
2729;DHT22;1372;47.956;7.830;2023-04-01T14:27:13;12.60;99.90
2729;DHT22;1372;47.956;7.830;2023-04-01T14:30:04;12.50;99.90
2729;DHT22;1372;47.956;7.830;2023-04-01T14:32:47;12.30;99.90
2729;DHT22;1372;47.956;7.830;2023-04-01T14:35:33;12.00;99.90
2729;DHT22;1372;47.956;7.830;2023-04-01T14:38:30;11.50;99.90
2729;DHT22;1372;47.956;7.830;2023-04-01T14:41:19;11.10;99.90
2729;DHT22;1372;47.956;7.830;2023-04-01T14:47:15;11.10;99.90
2729;DHT22;1372;47.956;7.830;2023-04-01T14:50:05;11.20;99.90
2729;DHT22;1372;47.956;7.830;2023-04-01T14:52:39;11.50;99.90
2729;DHT22;1372;47.956;7.830;2023-04-01T14:55:23;11.80;99.90
2729;DHT22;1372;47.956;7.830;2023-04-01T14:58:04;11.90;99.90
2729;DHT22;1372;47.956;7.830;2023-04-01T15:00:47;12.00;99.90
2729;DHT22;1372;47.956;7.830;2023-04-01T15:03:26;12.10;99.90
2729;DHT22;1372;47.956;7.830;2023-04-01T15:06:27;12.30;99.90
2729;DHT22;1372;47.956;7.830;2023-04-01T15:09:14;12.40;99.90
2729;DHT22;1372;47.956;7.830;2023-04-01T15:11:57;12.50;99.90
2729;DHT22;1372;47.956;7.830;2023-04-01T15:14:45;12.40;99.90
2729;DHT22;1372;47.956;7.830;2023-04-01T15:17:28;12.40;99.90
2729;DHT22;1372;47.956;7.830;2023-04-01T15:20:25;12.40;99.90
2729;DHT22;1372;47.956;7.830;2023-04-01T15:23:19;12.60;99.90
2729;DHT22;1372;47.956;7.830;2023-04-01T15:26:11;12.80;99.90
2729;DHT22;1372;47.956;7.830;2023-04-01T15:28:50;12.90;99.90
2729;DHT22;1372;47.956;7.830;2023-04-01T15:31:33;12.80;99.90
2729;DHT22;1372;47.956;7.830;2023-04-01T15:34:29;12.60;99.90
2729;DHT22;1372;47.956;7.830;2023-04-01T15:37:07;12.50;99.90
2729;DHT22;1372;47.956;7.830;2023-04-01T15:39:50;12.40;99.90
2729;DHT22;1372;47.956;7.830;2023-04-01T15:42:32;12.20;99.90
2729;DHT22;1372;47.956;7.830;2023-04-01T15:45:17;12.00;99.90
2729;DHT22;1372;47.956;7.830;2023-04-01T15:48:11;11.90;99.90
2729;DHT22;1372;47.956;7.830;2023-04-01T15:51:11;11.80;99.90
2729;DHT22;1372;47.956;7.830;2023-04-01T15:54:06;11.80;99.90
2729;DHT22;1372;47.956;7.830;2023-04-01T15:57:03;11.60;99.90
2729;DHT22;1372;47.956;7.830;2023-04-01T16:02:48;11.70;99.90
2729;DHT22;1372;47.956;7.830;2023-04-01T16:05:40;11.70;99.90
2729;DHT22;1372;47.956;7.830;2023-04-01T16:08:29;11.80;99.90
2729;DHT22;1372;47.956;7.830;2023-04-01T16:11:17;12.00;99.90
2729;DHT22;1372;47.956;7.830;2023-04-01T16:13:58;12.00;99.90
2729;DHT22;1372;47.956;7.830;2023-04-01T16:16:53;12.00;99.90
2729;DHT22;1372;47.956;7.830;2023-04-01T16:19:40;12.00;99.90
2729;DHT22;1372;47.956;7.830;2023-04-01T16:22:20;12.00;99.90
2729;DHT22;1372;47.956;7.830;2023-04-01T16:24:59;12.00;99.90
2729;DHT22;1372;47.956;7.830;2023-04-01T16:27:50;12.10;99.90
2729;DHT22;1372;47.956;7.830;2023-04-01T16:30:32;12.00;99.90
2729;DHT22;1372;47.956;7.830;2023-04-01T16:33:11;11.90;99.90
2729;DHT22;1372;47.956;7.830;2023-04-01T16:35:46;11.80;99.90
2729;DHT22;1372;47.956;7.830;2023-04-01T16:38:22;11.80;99.90
2729;DHT22;1372;47.956;7.830;2023-04-01T16:41:06;12.20;99.90
2729;DHT22;1372;47.956;7.830;2023-04-01T16:43:42;12.20;99.90
2729;DHT22;1372;47.956;7.830;2023-04-01T16:46:32;12.00;99.90
2729;DHT22;1372;47.956;7.830;2023-04-01T16:49:28;11.90;99.90
2729;DHT22;1372;47.956;7.830;2023-04-01T16:52:16;11.80;99.90
2729;DHT22;1372;47.956;7.830;2023-04-01T16:54:51;11.70;99.90
2729;DHT22;1372;47.956;7.830;2023-04-01T16:57:26;11.70;99.90
2729;DHT22;1372;47.956;7.830;2023-04-01T17:00:03;11.60;99.90
2729;DHT22;1372;47.956;7.830;2023-04-01T17:02:47;11.60;99.90
2729;DHT22;1372;47.956;7.830;2023-04-01T17:05:22;11.60;99.90
2729;DHT22;1372;47.956;7.830;2023-04-01T17:08:17;11.60;99.90
2729;DHT22;1372;47.956;7.830;2023-04-01T17:10:53;11.60;99.90
2729;DHT22;1372;47.956;7.830;2023-04-01T17:13:35;11.60;99.90
2729;DHT22;1372;47.956;7.830;2023-04-01T17:16:31;11.60;99.90
2729;DHT22;1372;47.956;7.830;2023-04-01T17:19:29;11.50;99.90
2729;DHT22;1372;47.956;7.830;2023-04-01T17:22:17;11.50;99.90
2729;DHT22;1372;47.956;7.830;2023-04-01T17:25:13;11.60;99.90
2729;DHT22;1372;47.956;7.830;2023-04-01T17:27:54;11.50;99.90
2729;DHT22;1372;47.956;7.830;2023-04-01T17:30:31;11.60;99.90
2729;DHT22;1372;47.956;7.830;2023-04-01T17:33:18;11.50;99.90
2729;DHT22;1372;47.956;7.830;2023-04-01T17:35:58;11.60;99.90
2729;DHT22;1372;47.956;7.830;2023-04-01T17:39:01;11.60;99.90
2729;DHT22;1372;47.956;7.830;2023-04-01T17:42:06;11.60;99.90
2729;DHT22;1372;47.956;7.830;2023-04-01T17:44:56;11.50;99.90
2729;DHT22;1372;47.956;7.830;2023-04-01T17:47:43;11.40;99.90
2729;DHT22;1372;47.956;7.830;2023-04-01T17:50:28;11.40;99.90
2729;DHT22;1372;47.956;7.830;2023-04-01T17:53:18;11.20;99.90
2729;DHT22;1372;47.956;7.830;2023-04-01T17:56:02;11.10;99.90
2729;DHT22;1372;47.956;7.830;2023-04-01T17:58:44;10.90;99.90
2729;DHT22;1372;47.956;7.830;2023-04-01T18:01:34;10.90;99.90
2729;DHT22;1372;47.956;7.830;2023-04-01T18:10:30;10.30;99.90
2729;DHT22;1372;47.956;7.830;2023-04-01T18:13:22;10.20;99.90
2729;DHT22;1372;47.956;7.830;2023-04-01T18:16:09;10.00;99.90
2729;DHT22;1372;47.956;7.830;2023-04-01T18:18:50;10.00;99.90
2729;DHT22;1372;47.956;7.830;2023-04-01T18:21:29;9.90;99.90
2729;DHT22;1372;47.956;7.830;2023-04-01T18:24:13;9.80;99.90
2729;DHT22;1372;47.956;7.830;2023-04-01T18:26:49;9.70;99.90
2729;DHT22;1372;47.956;7.830;2023-04-01T18:29:33;9.40;99.90
2729;DHT22;1372;47.956;7.830;2023-04-01T18:32:13;9.30;99.90
2729;DHT22;1372;47.956;7.830;2023-04-01T18:34:58;9.30;99.90
2729;DHT22;1372;47.956;7.830;2023-04-01T18:37:34;9.20;99.90
2729;DHT22;1372;47.956;7.830;2023-04-01T18:40:18;9.20;99.90
2729;DHT22;1372;47.956;7.830;2023-04-01T18:43:00;9.30;99.90
2729;DHT22;1372;47.956;7.830;2023-04-01T18:45:37;9.40;99.90
2729;DHT22;1372;47.956;7.830;2023-04-01T18:48:17;9.40;99.90
2729;DHT22;1372;47.956;7.830;2023-04-01T18:51:13;9.40;99.90
2729;DHT22;1372;47.956;7.830;2023-04-01T18:53:47;9.40;99.90
2729;DHT22;1372;47.956;7.830;2023-04-01T18:56:25;9.40;99.90
2729;DHT22;1372;47.956;7.830;2023-04-01T18:59:05;9.40;99.90
2729;DHT22;1372;47.956;7.830;2023-04-01T19:01:40;9.40;99.90
2729;DHT22;1372;47.956;7.830;2023-04-01T19:04:23;9.20;99.90
2729;DHT22;1372;47.956;7.830;2023-04-01T19:06:58;9.10;99.90
2729;DHT22;1372;47.956;7.830;2023-04-01T19:09:31;9.10;99.90
2729;DHT22;1372;47.956;7.830;2023-04-01T19:12:12;9.00;99.90
2729;DHT22;1372;47.956;7.830;2023-04-01T19:14:56;9.00;99.90
2729;DHT22;1372;47.956;7.830;2023-04-01T19:17:53;8.80;99.90
2729;DHT22;1372;47.956;7.830;2023-04-01T19:20:30;8.70;99.90
2729;DHT22;1372;47.956;7.830;2023-04-01T19:23:31;8.60;99.90
2729;DHT22;1372;47.956;7.830;2023-04-01T19:26:11;8.50;99.90
2729;DHT22;1372;47.956;7.830;2023-04-01T19:28:49;8.40;99.90
2729;DHT22;1372;47.956;7.830;2023-04-01T19:31:36;8.20;99.90
2729;DHT22;1372;47.956;7.830;2023-04-01T19:34:21;8.30;99.90